sensor_id;sensor_type;location;lat;lon;timestamp;P1;durP1;ratioP1;P2;durP2;ratioP2
22030;SDS011;11179;52.106;21.024;2023-02-15T00:01:40;58.97;;;26.40;;
22030;SDS011;11179;52.106;21.024;2023-02-15T00:04:08;65.90;;;27.83;;
22030;SDS011;11179;52.106;21.024;2023-02-15T00:06:34;61.87;;;26.97;;
22030;SDS011;11179;52.106;21.024;2023-02-15T00:09:00;59.80;;;27.83;;
22030;SDS011;11179;52.106;21.024;2023-02-15T00:11:26;57.13;;;26.80;;
22030;SDS011;11179;52.106;21.024;2023-02-15T00:14:12;66.73;;;30.83;;
22030;SDS011;11179;52.106;21.024;2023-02-15T00:16:40;63.40;;;29.50;;
22030;SDS011;11179;52.106;21.024;2023-02-15T00:19:07;61.93;;;27.10;;
22030;SDS011;11179;52.106;21.024;2023-02-15T00:21:33;63.07;;;26.57;;
22030;SDS011;11179;52.106;21.024;2023-02-15T00:24:00;60.10;;;27.70;;
22030;SDS011;11179;52.106;21.024;2023-02-15T00:26:27;66.37;;;29.53;;
22030;SDS011;11179;52.106;21.024;2023-02-15T00:28:53;72.03;;;30.97;;
22030;SDS011;11179;52.106;21.024;2023-02-15T00:31:19;74.77;;;28.00;;
22030;SDS011;11179;52.106;21.024;2023-02-15T00:33:45;68.40;;;29.67;;
22030;SDS011;11179;52.106;21.024;2023-02-15T00:36:11;65.10;;;29.63;;
22030;SDS011;11179;52.106;21.024;2023-02-15T00:38:36;65.43;;;30.13;;
22030;SDS011;11179;52.106;21.024;2023-02-15T00:41:03;73.27;;;29.40;;
22030;SDS011;11179;52.106;21.024;2023-02-15T00:43:30;61.70;;;29.03;;
22030;SDS011;11179;52.106;21.024;2023-02-15T00:45:57;65.17;;;29.23;;
22030;SDS011;11179;52.106;21.024;2023-02-15T00:48:23;65.37;;;27.80;;
22030;SDS011;11179;52.106;21.024;2023-02-15T00:50:49;61.03;;;27.30;;
22030;SDS011;11179;52.106;21.024;2023-02-15T00:53:17;66.27;;;29.80;;
22030;SDS011;11179;52.106;21.024;2023-02-15T00:55:43;64.70;;;28.13;;
22030;SDS011;11179;52.106;21.024;2023-02-15T00:58:09;66.20;;;28.57;;
22030;SDS011;11179;52.106;21.024;2023-02-15T01:00:35;67.50;;;29.53;;
22030;SDS011;11179;52.106;21.024;2023-02-15T01:03:02;64.93;;;28.50;;
22030;SDS011;11179;52.106;21.024;2023-02-15T01:05:28;57.83;;;25.57;;
22030;SDS011;11179;52.106;21.024;2023-02-15T01:07:54;64.00;;;29.17;;
22030;SDS011;11179;52.106;21.024;2023-02-15T01:10:20;58.13;;;27.10;;
22030;SDS011;11179;52.106;21.024;2023-02-15T01:12:46;69.17;;;29.10;;
22030;SDS011;11179;52.106;21.024;2023-02-15T01:15:11;73.90;;;31.30;;
22030;SDS011;11179;52.106;21.024;2023-02-15T01:17:36;65.70;;;28.10;;
22030;SDS011;11179;52.106;21.024;2023-02-15T01:20:02;71.03;;;29.03;;
22030;SDS011;11179;52.106;21.024;2023-02-15T01:22:28;75.10;;;30.33;;
22030;SDS011;11179;52.106;21.024;2023-02-15T01:24:53;66.93;;;28.20;;
22030;SDS011;11179;52.106;21.024;2023-02-15T01:27:18;70.97;;;29.23;;
22030;SDS011;11179;52.106;21.024;2023-02-15T01:29:44;74.93;;;29.27;;
22030;SDS011;11179;52.106;21.024;2023-02-15T01:32:09;68.70;;;29.00;;
22030;SDS011;11179;52.106;21.024;2023-02-15T01:34:35;69.40;;;30.17;;
22030;SDS011;11179;52.106;21.024;2023-02-15T01:37:00;72.17;;;29.07;;
22030;SDS011;11179;52.106;21.024;2023-02-15T01:39:26;74.63;;;29.17;;
22030;SDS011;11179;52.106;21.024;2023-02-15T01:41:51;70.33;;;29.10;;
22030;SDS011;11179;52.106;21.024;2023-02-15T01:47:20;62.53;;;26.00;;
22030;SDS011;11179;52.106;21.024;2023-02-15T01:49:48;61.67;;;28.23;;
22030;SDS011;11179;52.106;21.024;2023-02-15T01:52:26;63.80;;;28.57;;
22030;SDS011;11179;52.106;21.024;2023-02-15T01:54:52;71.67;;;27.40;;
22030;SDS011;11179;52.106;21.024;2023-02-15T01:57:19;64.57;;;27.73;;
22030;SDS011;11179;52.106;21.024;2023-02-15T01:59:49;65.03;;;27.63;;
22030;SDS011;11179;52.106;21.024;2023-02-15T02:02:20;64.73;;;28.53;;
22030;SDS011;11179;52.106;21.024;2023-02-15T02:04:50;62.30;;;27.53;;
22030;SDS011;11179;52.106;21.024;2023-02-15T02:07:17;66.93;;;28.37;;
22030;SDS011;11179;52.106;21.024;2023-02-15T02:09:45;61.67;;;27.90;;
22030;SDS011;11179;52.106;21.024;2023-02-15T02:12:11;66.17;;;27.90;;
22030;SDS011;11179;52.106;21.024;2023-02-15T02:14:37;63.67;;;26.83;;
22030;SDS011;11179;52.106;21.024;2023-02-15T02:31:07;67.30;;;31.30;;
22030;SDS011;11179;52.106;21.024;2023-02-15T02:47:51;71.80;;;28.90;;
22030;SDS011;11179;52.106;21.024;2023-02-15T02:50:25;62.93;;;27.33;;
22030;SDS011;11179;52.106;21.024;2023-02-15T02:52:53;71.03;;;28.40;;
22030;SDS011;11179;52.106;21.024;2023-02-15T02:55:34;71.33;;;29.33;;
22030;SDS011;11179;52.106;21.024;2023-02-15T03:00:43;75.57;;;31.20;;
22030;SDS011;11179;52.106;21.024;2023-02-15T03:03:16;63.70;;;28.47;;
22030;SDS011;11179;52.106;21.024;2023-02-15T03:05:44;66.60;;;29.60;;
22030;SDS011;11179;52.106;21.024;2023-02-15T03:08:14;62.53;;;28.03;;
22030;SDS011;11179;52.106;21.024;2023-02-15T03:10:46;64.53;;;29.00;;
22030;SDS011;11179;52.106;21.024;2023-02-15T03:13:13;69.40;;;28.20;;
22030;SDS011;11179;52.106;21.024;2023-02-15T03:15:39;68.23;;;30.50;;
22030;SDS011;11179;52.106;21.024;2023-02-15T03:18:28;70.53;;;30.40;;
22030;SDS011;11179;52.106;21.024;2023-02-15T03:20:59;69.70;;;30.37;;
22030;SDS011;11179;52.106;21.024;2023-02-15T03:23:27;68.90;;;30.17;;
22030;SDS011;11179;52.106;21.024;2023-02-15T03:25:59;67.13;;;26.37;;
22030;SDS011;11179;52.106;21.024;2023-02-15T03:28:36;68.10;;;32.23;;
22030;SDS011;11179;52.106;21.024;2023-02-15T03:31:07;67.80;;;30.20;;
22030;SDS011;11179;52.106;21.024;2023-02-15T03:33:35;74.43;;;30.43;;
22030;SDS011;11179;52.106;21.024;2023-02-15T03:36:09;72.30;;;30.33;;
22030;SDS011;11179;52.106;21.024;2023-02-15T03:38:47;72.80;;;30.10;;
22030;SDS011;11179;52.106;21.024;2023-02-15T03:41:19;79.57;;;31.60;;
22030;SDS011;11179;52.106;21.024;2023-02-15T03:43:54;71.67;;;29.23;;
22030;SDS011;11179;52.106;21.024;2023-02-15T03:46:27;63.60;;;29.13;;
22030;SDS011;11179;52.106;21.024;2023-02-15T03:49:14;67.93;;;28.83;;
22030;SDS011;11179;52.106;21.024;2023-02-15T03:51:55;59.47;;;29.17;;
22030;SDS011;11179;52.106;21.024;2023-02-15T03:54:27;76.17;;;29.03;;
22030;SDS011;11179;52.106;21.024;2023-02-15T03:57:22;70.37;;;28.93;;
22030;SDS011;11179;52.106;21.024;2023-02-15T04:03:01;57.53;;;27.00;;
22030;SDS011;11179;52.106;21.024;2023-02-15T04:05:34;61.40;;;26.93;;
22030;SDS011;11179;52.106;21.024;2023-02-15T04:08:00;59.10;;;23.13;;
22030;SDS011;11179;52.106;21.024;2023-02-15T04:10:25;51.23;;;23.77;;
22030;SDS011;11179;52.106;21.024;2023-02-15T04:13:09;58.90;;;23.90;;
22030;SDS011;11179;52.106;21.024;2023-02-15T04:15:35;60.73;;;25.43;;
22030;SDS011;11179;52.106;21.024;2023-02-15T04:18:18;50.60;;;23.00;;
22030;SDS011;11179;52.106;21.024;2023-02-15T04:20:44;62.60;;;24.43;;
22030;SDS011;11179;52.106;21.024;2023-02-15T04:23:29;52.15;;;20.70;;
22030;SDS011;11179;52.106;21.024;2023-02-15T04:26:13;48.90;;;22.20;;
22030;SDS011;11179;52.106;21.024;2023-02-15T04:28:38;44.23;;;20.00;;
22030;SDS011;11179;52.106;21.024;2023-02-15T04:31:03;45.93;;;18.80;;
22030;SDS011;11179;52.106;21.024;2023-02-15T04:33:29;49.00;;;20.73;;
22030;SDS011;11179;52.106;21.024;2023-02-15T04:35:54;43.00;;;20.90;;
22030;SDS011;11179;52.106;21.024;2023-02-15T04:38:19;48.00;;;20.27;;
22030;SDS011;11179;52.106;21.024;2023-02-15T04:40:48;48.03;;;21.30;;
22030;SDS011;11179;52.106;21.024;2023-02-15T04:43:14;45.70;;;19.80;;
22030;SDS011;11179;52.106;21.024;2023-02-15T04:45:40;43.73;;;20.40;;
22030;SDS011;11179;52.106;21.024;2023-02-15T04:48:05;44.73;;;20.10;;
22030;SDS011;11179;52.106;21.024;2023-02-15T04:50:30;42.17;;;19.40;;
22030;SDS011;11179;52.106;21.024;2023-02-15T04:52:55;41.93;;;18.97;;
22030;SDS011;11179;52.106;21.024;2023-02-15T04:55:21;43.27;;;18.50;;
22030;SDS011;11179;52.106;21.024;2023-02-15T04:57:46;37.23;;;16.77;;
22030;SDS011;11179;52.106;21.024;2023-02-15T05:00:12;44.00;;;18.80;;
22030;SDS011;11179;52.106;21.024;2023-02-15T05:02:37;48.53;;;18.53;;
22030;SDS011;11179;52.106;21.024;2023-02-15T05:05:03;40.87;;;18.17;;
22030;SDS011;11179;52.106;21.024;2023-02-15T05:07:28;41.60;;;16.40;;
22030;SDS011;11179;52.106;21.024;2023-02-15T05:09:53;39.23;;;16.70;;
22030;SDS011;11179;52.106;21.024;2023-02-15T05:12:19;43.43;;;18.10;;
22030;SDS011;11179;52.106;21.024;2023-02-15T05:14:44;43.77;;;18.40;;
22030;SDS011;11179;52.106;21.024;2023-02-15T05:17:09;43.80;;;18.67;;
22030;SDS011;11179;52.106;21.024;2023-02-15T05:19:35;41.90;;;19.40;;
22030;SDS011;11179;52.106;21.024;2023-02-15T05:22:00;49.17;;;17.70;;
22030;SDS011;11179;52.106;21.024;2023-02-15T05:24:25;38.03;;;17.63;;
22030;SDS011;11179;52.106;21.024;2023-02-15T05:27:10;43.10;;;17.60;;
22030;SDS011;11179;52.106;21.024;2023-02-15T05:29:55;52.70;;;21.47;;
22030;SDS011;11179;52.106;21.024;2023-02-15T05:32:20;45.73;;;20.53;;
22030;SDS011;11179;52.106;21.024;2023-02-15T05:34:46;38.77;;;17.30;;
22030;SDS011;11179;52.106;21.024;2023-02-15T05:37:11;35.90;;;16.23;;
22030;SDS011;11179;52.106;21.024;2023-02-15T05:39:36;38.53;;;18.30;;
22030;SDS011;11179;52.106;21.024;2023-02-15T05:42:01;38.70;;;18.03;;
22030;SDS011;11179;52.106;21.024;2023-02-15T05:44:27;39.83;;;16.60;;
22030;SDS011;11179;52.106;21.024;2023-02-15T05:46:52;39.80;;;17.40;;
22030;SDS011;11179;52.106;21.024;2023-02-15T05:49:18;46.77;;;19.90;;
22030;SDS011;11179;52.106;21.024;2023-02-15T05:51:43;37.40;;;16.90;;
22030;SDS011;11179;52.106;21.024;2023-02-15T05:54:08;39.03;;;18.27;;
22030;SDS011;11179;52.106;21.024;2023-02-15T05:56:34;36.30;;;17.87;;
22030;SDS011;11179;52.106;21.024;2023-02-15T05:58:59;38.60;;;15.70;;
22030;SDS011;11179;52.106;21.024;2023-02-15T06:01:24;38.37;;;17.97;;
22030;SDS011;11179;52.106;21.024;2023-02-15T06:03:50;38.73;;;16.83;;
22030;SDS011;11179;52.106;21.024;2023-02-15T06:06:16;38.17;;;17.40;;
22030;SDS011;11179;52.106;21.024;2023-02-15T06:08:41;40.63;;;17.77;;
22030;SDS011;11179;52.106;21.024;2023-02-15T06:11:06;35.73;;;18.40;;
22030;SDS011;11179;52.106;21.024;2023-02-15T06:13:32;35.67;;;16.70;;
22030;SDS011;11179;52.106;21.024;2023-02-15T06:15:59;39.43;;;16.77;;
22030;SDS011;11179;52.106;21.024;2023-02-15T06:18:24;40.30;;;18.53;;
22030;SDS011;11179;52.106;21.024;2023-02-15T06:20:50;48.77;;;19.20;;
22030;SDS011;11179;52.106;21.024;2023-02-15T06:23:16;49.60;;;19.47;;
22030;SDS011;11179;52.106;21.024;2023-02-15T06:25:41;53.87;;;22.77;;
22030;SDS011;11179;52.106;21.024;2023-02-15T06:28:07;61.20;;;22.57;;
22030;SDS011;11179;52.106;21.024;2023-02-15T06:30:32;57.60;;;22.47;;
22030;SDS011;11179;52.106;21.024;2023-02-15T06:32:57;57.07;;;21.83;;
22030;SDS011;11179;52.106;21.024;2023-02-15T06:35:23;63.23;;;22.13;;
22030;SDS011;11179;52.106;21.024;2023-02-15T06:37:49;62.73;;;20.87;;
22030;SDS011;11179;52.106;21.024;2023-02-15T06:40:14;53.87;;;20.60;;
22030;SDS011;11179;52.106;21.024;2023-02-15T06:42:43;49.67;;;20.97;;
22030;SDS011;11179;52.106;21.024;2023-02-15T06:45:09;56.20;;;19.50;;
22030;SDS011;11179;52.106;21.024;2023-02-15T06:47:35;51.08;;;19.70;;
22030;SDS011;11179;52.106;21.024;2023-02-15T06:50:01;54.13;;;21.77;;
22030;SDS011;11179;52.106;21.024;2023-02-15T06:52:26;46.17;;;19.60;;
22030;SDS011;11179;52.106;21.024;2023-02-15T06:54:52;52.73;;;18.80;;
22030;SDS011;11179;52.106;21.024;2023-02-15T06:57:17;50.30;;;18.40;;
22030;SDS011;11179;52.106;21.024;2023-02-15T06:59:42;37.57;;;16.73;;
22030;SDS011;11179;52.106;21.024;2023-02-15T07:02:16;39.07;;;16.87;;
22030;SDS011;11179;52.106;21.024;2023-02-15T07:04:42;45.87;;;17.80;;
22030;SDS011;11179;52.106;21.024;2023-02-15T07:07:08;40.53;;;16.77;;
22030;SDS011;11179;52.106;21.024;2023-02-15T07:09:34;43.43;;;17.37;;
22030;SDS011;11179;52.106;21.024;2023-02-15T07:11:59;47.90;;;17.93;;
22030;SDS011;11179;52.106;21.024;2023-02-15T07:14:43;40.07;;;16.10;;
22030;SDS011;11179;52.106;21.024;2023-02-15T07:17:08;35.80;;;15.10;;
22030;SDS011;11179;52.106;21.024;2023-02-15T07:19:34;33.53;;;14.83;;
22030;SDS011;11179;52.106;21.024;2023-02-15T07:21:59;33.90;;;15.00;;
22030;SDS011;11179;52.106;21.024;2023-02-15T07:24:25;31.63;;;14.17;;
22030;SDS011;11179;52.106;21.024;2023-02-15T07:26:50;33.30;;;14.37;;
22030;SDS011;11179;52.106;21.024;2023-02-15T07:29:15;35.70;;;13.93;;
22030;SDS011;11179;52.106;21.024;2023-02-15T07:31:41;34.23;;;14.37;;
22030;SDS011;11179;52.106;21.024;2023-02-15T07:34:10;34.13;;;15.70;;
22030;SDS011;11179;52.106;21.024;2023-02-15T07:36:35;29.70;;;13.80;;
22030;SDS011;11179;52.106;21.024;2023-02-15T07:39:01;35.20;;;14.93;;
22030;SDS011;11179;52.106;21.024;2023-02-15T07:41:26;33.97;;;16.57;;
22030;SDS011;11179;52.106;21.024;2023-02-15T07:43:51;30.60;;;14.40;;
22030;SDS011;11179;52.106;21.024;2023-02-15T07:46:17;33.90;;;14.50;;
22030;SDS011;11179;52.106;21.024;2023-02-15T07:48:43;34.53;;;14.83;;
22030;SDS011;11179;52.106;21.024;2023-02-15T07:51:10;33.90;;;15.80;;
22030;SDS011;11179;52.106;21.024;2023-02-15T07:53:36;35.73;;;15.30;;
22030;SDS011;11179;52.106;21.024;2023-02-15T07:56:04;45.30;;;16.60;;
22030;SDS011;11179;52.106;21.024;2023-02-15T07:58:32;41.53;;;17.33;;
22030;SDS011;11179;52.106;21.024;2023-02-15T08:01:17;47.30;;;18.63;;
22030;SDS011;11179;52.106;21.024;2023-02-15T08:03:43;43.60;;;19.33;;
22030;SDS011;11179;52.106;21.024;2023-02-15T08:06:08;51.50;;;19.43;;
22030;SDS011;11179;52.106;21.024;2023-02-15T08:08:36;45.63;;;19.10;;
22030;SDS011;11179;52.106;21.024;2023-02-15T08:11:06;47.10;;;18.30;;
22030;SDS011;11179;52.106;21.024;2023-02-15T08:14:10;47.43;;;19.73;;
22030;SDS011;11179;52.106;21.024;2023-02-15T08:19:07;50.03;;;20.27;;
22030;SDS011;11179;52.106;21.024;2023-02-15T08:21:39;50.13;;;20.33;;
22030;SDS011;11179;52.106;21.024;2023-02-15T08:24:08;46.17;;;19.40;;
22030;SDS011;11179;52.106;21.024;2023-02-15T08:26:34;46.83;;;19.70;;
22030;SDS011;11179;52.106;21.024;2023-02-15T08:29:00;40.60;;;17.13;;
22030;SDS011;11179;52.106;21.024;2023-02-15T08:31:26;37.60;;;15.10;;
22030;SDS011;11179;52.106;21.024;2023-02-15T08:33:53;39.60;;;16.63;;
22030;SDS011;11179;52.106;21.024;2023-02-15T08:36:21;33.78;;;14.05;;
22030;SDS011;11179;52.106;21.024;2023-02-15T08:38:48;34.77;;;15.30;;
22030;SDS011;11179;52.106;21.024;2023-02-15T08:41:21;37.80;;;15.90;;
22030;SDS011;11179;52.106;21.024;2023-02-15T08:43:49;39.70;;;15.03;;
22030;SDS011;11179;52.106;21.024;2023-02-15T08:46:18;45.50;;;18.13;;
22030;SDS011;11179;52.106;21.024;2023-02-15T08:48:44;39.33;;;16.98;;
22030;SDS011;11179;52.106;21.024;2023-02-15T08:51:12;48.23;;;17.33;;
22030;SDS011;11179;52.106;21.024;2023-02-15T08:53:43;37.57;;;16.20;;
22030;SDS011;11179;52.106;21.024;2023-02-15T08:56:10;36.67;;;16.43;;
22030;SDS011;11179;52.106;21.024;2023-02-15T08:58:36;35.97;;;17.53;;
22030;SDS011;11179;52.106;21.024;2023-02-15T09:01:36;45.20;;;18.67;;
22030;SDS011;11179;52.106;21.024;2023-02-15T09:03:56;41.90;;;14.67;;
22030;SDS011;11179;52.106;21.024;2023-02-15T09:06:23;32.90;;;15.00;;
22030;SDS011;11179;52.106;21.024;2023-02-15T09:08:51;33.17;;;14.93;;
22030;SDS011;11179;52.106;21.024;2023-02-15T09:11:24;36.30;;;14.40;;
22030;SDS011;11179;52.106;21.024;2023-02-15T09:13:54;33.23;;;14.60;;
22030;SDS011;11179;52.106;21.024;2023-02-15T09:16:31;31.60;;;14.43;;
22030;SDS011;11179;52.106;21.024;2023-02-15T09:18:58;39.63;;;15.70;;
22030;SDS011;11179;52.106;21.024;2023-02-15T09:21:29;44.97;;;17.40;;
22030;SDS011;11179;52.106;21.024;2023-02-15T09:23:56;35.25;;;15.05;;
22030;SDS011;11179;52.106;21.024;2023-02-15T09:26:24;40.00;;;16.00;;
22030;SDS011;11179;52.106;21.024;2023-02-15T09:28:52;34.33;;;15.57;;
22030;SDS011;11179;52.106;21.024;2023-02-15T09:31:21;36.23;;;15.57;;
22030;SDS011;11179;52.106;21.024;2023-02-15T09:33:50;37.03;;;15.80;;
22030;SDS011;11179;52.106;21.024;2023-02-15T09:38:44;41.07;;;17.10;;
22030;SDS011;11179;52.106;21.024;2023-02-15T09:43:54;45.20;;;18.37;;
22030;SDS011;11179;52.106;21.024;2023-02-15T09:52:48;35.97;;;16.13;;
22030;SDS011;11179;52.106;21.024;2023-02-15T10:03:24;39.53;;;17.47;;
22030;SDS011;11179;52.106;21.024;2023-02-15T10:06:03;38.70;;;16.87;;
22030;SDS011;11179;52.106;21.024;2023-02-15T10:08:52;42.70;;;18.30;;
22030;SDS011;11179;52.106;21.024;2023-02-15T10:14:13;53.67;;;18.60;;
22030;SDS011;11179;52.106;21.024;2023-02-15T10:17:06;52.80;;;19.87;;
22030;SDS011;11179;52.106;21.024;2023-02-15T10:24:55;42.43;;;18.37;;
22030;SDS011;11179;52.106;21.024;2023-02-15T10:27:25;37.60;;;17.37;;
22030;SDS011;11179;52.106;21.024;2023-02-15T10:29:56;40.33;;;18.43;;
22030;SDS011;11179;52.106;21.024;2023-02-15T10:32:51;40.17;;;18.03;;
22030;SDS011;11179;52.106;21.024;2023-02-15T10:35:33;40.23;;;17.20;;
22030;SDS011;11179;52.106;21.024;2023-02-15T10:54:49;41.57;;;17.53;;
22030;SDS011;11179;52.106;21.024;2023-02-15T10:57:22;44.30;;;17.47;;
22030;SDS011;11179;52.106;21.024;2023-02-15T11:03:23;46.63;;;17.90;;
22030;SDS011;11179;52.106;21.024;2023-02-15T11:08:24;40.87;;;17.47;;
22030;SDS011;11179;52.106;21.024;2023-02-15T11:10:53;45.47;;;17.27;;
22030;SDS011;11179;52.106;21.024;2023-02-15T11:13:22;46.07;;;17.90;;
22030;SDS011;11179;52.106;21.024;2023-02-15T11:15:53;49.23;;;19.83;;
22030;SDS011;11179;52.106;21.024;2023-02-15T11:21:02;45.97;;;19.00;;
22030;SDS011;11179;52.106;21.024;2023-02-15T11:23:32;52.13;;;20.20;;
22030;SDS011;11179;52.106;21.024;2023-02-15T11:26:01;49.70;;;20.43;;
22030;SDS011;11179;52.106;21.024;2023-02-15T11:28:40;48.90;;;21.23;;
22030;SDS011;11179;52.106;21.024;2023-02-15T11:31:31;55.43;;;21.63;;
22030;SDS011;11179;52.106;21.024;2023-02-15T11:34:12;49.63;;;20.30;;
22030;SDS011;11179;52.106;21.024;2023-02-15T11:36:43;52.30;;;21.50;;
22030;SDS011;11179;52.106;21.024;2023-02-15T11:39:13;50.10;;;22.23;;
22030;SDS011;11179;52.106;21.024;2023-02-15T11:41:44;54.70;;;21.80;;
22030;SDS011;11179;52.106;21.024;2023-02-15T11:44:22;51.13;;;21.40;;
22030;SDS011;11179;52.106;21.024;2023-02-15T11:46:52;46.60;;;20.90;;
22030;SDS011;11179;52.106;21.024;2023-02-15T11:49:22;47.60;;;20.20;;
22030;SDS011;11179;52.106;21.024;2023-02-15T11:51:59;48.50;;;21.00;;
22030;SDS011;11179;52.106;21.024;2023-02-15T11:54:28;44.43;;;21.13;;
22030;SDS011;11179;52.106;21.024;2023-02-15T11:57:03;50.97;;;22.00;;
22030;SDS011;11179;52.106;21.024;2023-02-15T11:59:37;56.13;;;19.43;;
22030;SDS011;11179;52.106;21.024;2023-02-15T12:02:14;49.27;;;20.93;;
22030;SDS011;11179;52.106;21.024;2023-02-15T12:04:41;53.90;;;20.90;;
22030;SDS011;11179;52.106;21.024;2023-02-15T12:07:18;52.27;;;20.93;;
22030;SDS011;11179;52.106;21.024;2023-02-15T12:09:49;49.27;;;19.30;;
22030;SDS011;11179;52.106;21.024;2023-02-15T12:12:29;47.90;;;20.60;;
22030;SDS011;11179;52.106;21.024;2023-02-15T12:15:00;47.63;;;20.03;;
22030;SDS011;11179;52.106;21.024;2023-02-15T12:17:32;48.50;;;20.07;;
22030;SDS011;11179;52.106;21.024;2023-02-15T12:20:04;47.50;;;20.77;;
22030;SDS011;11179;52.106;21.024;2023-02-15T12:22:50;48.00;;;19.13;;
22030;SDS011;11179;52.106;21.024;2023-02-15T12:25:22;51.23;;;21.37;;
22030;SDS011;11179;52.106;21.024;2023-02-15T12:27:54;52.23;;;21.47;;
22030;SDS011;11179;52.106;21.024;2023-02-15T12:30:25;52.07;;;19.80;;
22030;SDS011;11179;52.106;21.024;2023-02-15T12:32:57;55.13;;;19.70;;
22030;SDS011;11179;52.106;21.024;2023-02-15T12:35:39;55.67;;;20.80;;
22030;SDS011;11179;52.106;21.024;2023-02-15T12:38:19;52.67;;;21.30;;
22030;SDS011;11179;52.106;21.024;2023-02-15T12:41:00;52.40;;;21.63;;
22030;SDS011;11179;52.106;21.024;2023-02-15T12:43:32;51.80;;;21.00;;
22030;SDS011;11179;52.106;21.024;2023-02-15T12:51:45;51.17;;;22.03;;
22030;SDS011;11179;52.106;21.024;2023-02-15T12:54:34;55.45;;;22.58;;
22030;SDS011;11179;52.106;21.024;2023-02-15T12:59:48;49.15;;;21.25;;
22030;SDS011;11179;52.106;21.024;2023-02-15T13:04:53;58.87;;;23.40;;
22030;SDS011;11179;52.106;21.024;2023-02-15T13:07:20;58.05;;;23.50;;
22030;SDS011;11179;52.106;21.024;2023-02-15T13:09:46;66.97;;;24.73;;
22030;SDS011;11179;52.106;21.024;2023-02-15T13:12:22;56.07;;;22.23;;
22030;SDS011;11179;52.106;21.024;2023-02-15T13:14:51;63.10;;;25.77;;
22030;SDS011;11179;52.106;21.024;2023-02-15T13:17:27;64.93;;;24.73;;
22030;SDS011;11179;52.106;21.024;2023-02-15T13:19:57;57.53;;;24.43;;
22030;SDS011;11179;52.106;21.024;2023-02-15T13:22:39;57.43;;;24.20;;
22030;SDS011;11179;52.106;21.024;2023-02-15T13:25:44;61.03;;;24.30;;
22030;SDS011;11179;52.106;21.024;2023-02-15T13:28:10;63.42;;;24.13;;
22030;SDS011;11179;52.106;21.024;2023-02-15T13:30:42;60.63;;;24.00;;
22030;SDS011;11179;52.106;21.024;2023-02-15T13:41:27;68.90;;;27.77;;
22030;SDS011;11179;52.106;21.024;2023-02-15T13:50:06;67.70;;;27.93;;
22030;SDS011;11179;52.106;21.024;2023-02-15T13:52:38;64.53;;;27.73;;
22030;SDS011;11179;52.106;21.024;2023-02-15T14:00:47;59.10;;;23.20;;
22030;SDS011;11179;52.106;21.024;2023-02-15T14:03:36;56.20;;;22.33;;
22030;SDS011;11179;52.106;21.024;2023-02-15T14:09:21;58.43;;;23.63;;
22030;SDS011;11179;52.106;21.024;2023-02-15T14:20:21;69.10;;;26.13;;
22030;SDS011;11179;52.106;21.024;2023-02-15T14:23:01;63.73;;;26.80;;
22030;SDS011;11179;52.106;21.024;2023-02-15T14:26:02;58.33;;;23.03;;
22030;SDS011;11179;52.106;21.024;2023-02-15T14:28:33;51.33;;;22.00;;
22030;SDS011;11179;52.106;21.024;2023-02-15T14:31:14;55.95;;;20.70;;
22030;SDS011;11179;52.106;21.024;2023-02-15T14:33:41;50.10;;;21.13;;
22030;SDS011;11179;52.106;21.024;2023-02-15T14:36:14;51.57;;;20.20;;
22030;SDS011;11179;52.106;21.024;2023-02-15T14:38:47;50.30;;;21.60;;
22030;SDS011;11179;52.106;21.024;2023-02-15T14:41:54;51.33;;;21.03;;
22030;SDS011;11179;52.106;21.024;2023-02-15T14:44:38;57.03;;;22.13;;
22030;SDS011;11179;52.106;21.024;2023-02-15T14:47:11;57.97;;;25.10;;
22030;SDS011;11179;52.106;21.024;2023-02-15T14:49:51;53.17;;;21.97;;
22030;SDS011;11179;52.106;21.024;2023-02-15T14:52:17;54.30;;;22.00;;
22030;SDS011;11179;52.106;21.024;2023-02-15T15:02:17;65.63;;;26.10;;
22030;SDS011;11179;52.106;21.024;2023-02-15T15:07:21;65.00;;;25.93;;
22030;SDS011;11179;52.106;21.024;2023-02-15T15:10:04;53.10;;;21.40;;
22030;SDS011;11179;52.106;21.024;2023-02-15T15:12:57;62.63;;;24.33;;
22030;SDS011;11179;52.106;21.024;2023-02-15T15:17:52;55.87;;;21.87;;
22030;SDS011;11179;52.106;21.024;2023-02-15T15:20:41;56.23;;;21.00;;
22030;SDS011;11179;52.106;21.024;2023-02-15T15:25:44;62.83;;;23.90;;
22030;SDS011;11179;52.106;21.024;2023-02-15T15:29:12;58.50;;;22.37;;
22030;SDS011;11179;52.106;21.024;2023-02-15T15:31:20;59.57;;;23.37;;
22030;SDS011;11179;52.106;21.024;2023-02-15T15:42:22;52.13;;;21.77;;
22030;SDS011;11179;52.106;21.024;2023-02-15T15:45:17;64.73;;;25.27;;
22030;SDS011;11179;52.106;21.024;2023-02-15T15:50:31;60.00;;;23.13;;
22030;SDS011;11179;52.106;21.024;2023-02-15T15:52:58;56.80;;;23.50;;
22030;SDS011;11179;52.106;21.024;2023-02-15T15:55:26;46.90;;;19.70;;
22030;SDS011;11179;52.106;21.024;2023-02-15T15:57:56;47.30;;;20.00;;
22030;SDS011;11179;52.106;21.024;2023-02-15T16:03:16;58.17;;;24.43;;
22030;SDS011;11179;52.106;21.024;2023-02-15T16:05:46;58.33;;;23.10;;
22030;SDS011;11179;52.106;21.024;2023-02-15T16:08:25;56.90;;;22.60;;
22030;SDS011;11179;52.106;21.024;2023-02-15T16:11:10;57.27;;;22.73;;
22030;SDS011;11179;52.106;21.024;2023-02-15T16:13:45;53.77;;;21.30;;
22030;SDS011;11179;52.106;21.024;2023-02-15T16:16:12;58.90;;;23.77;;
22030;SDS011;11179;52.106;21.024;2023-02-15T16:18:38;52.27;;;23.10;;
22030;SDS011;11179;52.106;21.024;2023-02-15T16:21:12;57.90;;;22.57;;
22030;SDS011;11179;52.106;21.024;2023-02-15T16:24:29;65.23;;;25.97;;
22030;SDS011;11179;52.106;21.024;2023-02-15T16:29:29;54.80;;;23.67;;
22030;SDS011;11179;52.106;21.024;2023-02-15T16:32:00;59.23;;;24.27;;
22030;SDS011;11179;52.106;21.024;2023-02-15T16:34:27;52.03;;;23.60;;
22030;SDS011;11179;52.106;21.024;2023-02-15T16:37:11;66.60;;;24.50;;
22030;SDS011;11179;52.106;21.024;2023-02-15T16:39:42;60.60;;;25.42;;
22030;SDS011;11179;52.106;21.024;2023-02-15T16:42:08;61.00;;;25.37;;
22030;SDS011;11179;52.106;21.024;2023-02-15T16:44:35;62.07;;;24.87;;
22030;SDS011;11179;52.106;21.024;2023-02-15T16:47:01;62.23;;;27.40;;
22030;SDS011;11179;52.106;21.024;2023-02-15T16:49:27;59.77;;;25.97;;
22030;SDS011;11179;52.106;21.024;2023-02-15T16:52:03;60.53;;;26.03;;
22030;SDS011;11179;52.106;21.024;2023-02-15T16:54:32;60.03;;;26.80;;
22030;SDS011;11179;52.106;21.024;2023-02-15T16:56:58;54.73;;;23.27;;
22030;SDS011;11179;52.106;21.024;2023-02-15T17:01:56;50.27;;;22.40;;
22030;SDS011;11179;52.106;21.024;2023-02-15T17:06:57;58.07;;;25.87;;
22030;SDS011;11179;52.106;21.024;2023-02-15T17:09:25;58.07;;;20.30;;
22030;SDS011;11179;52.106;21.024;2023-02-15T17:11:50;62.77;;;24.70;;
22030;SDS011;11179;52.106;21.024;2023-02-15T17:14:19;53.53;;;22.07;;
22030;SDS011;11179;52.106;21.024;2023-02-15T17:16:49;56.87;;;23.77;;
22030;SDS011;11179;52.106;21.024;2023-02-15T17:19:24;57.53;;;24.60;;
22030;SDS011;11179;52.106;21.024;2023-02-15T17:21:53;54.23;;;23.70;;